sensor_id;sensor_type;location;lat;lon;timestamp;pressure;altitude;pressure_sealevel;temperature;humidity
18819;BME280;9537;45.594;9.294;2023-04-26T00:00:49;99274.72;;;11.73;68.87
18819;BME280;9537;45.594;9.294;2023-04-26T00:01:57;99274.31;;;11.69;68.70
18819;BME280;9537;45.594;9.294;2023-04-26T00:03:05;99273.75;;;11.74;68.45
18819;BME280;9537;45.594;9.294;2023-04-26T00:04:12;99270.72;;;11.77;67.98
18819;BME280;9537;45.594;9.294;2023-04-26T00:05:18;99274.94;;;11.71;68.11
18819;BME280;9537;45.594;9.294;2023-04-26T00:06:25;99279.69;;;11.76;68.23
18819;BME280;9537;45.594;9.294;2023-04-26T00:07:32;99272.16;;;11.80;68.42
18819;BME280;9537;45.594;9.294;2023-04-26T00:08:39;99272.94;;;11.73;68.74
18819;BME280;9537;45.594;9.294;2023-04-26T00:09:45;99265.97;;;11.72;68.95
18819;BME280;9537;45.594;9.294;2023-04-26T00:10:52;99276.00;;;11.77;69.07
18819;BME280;9537;45.594;9.294;2023-04-26T00:11:59;99275.63;;;11.80;69.09
18819;BME280;9537;45.594;9.294;2023-04-26T00:13:07;99270.91;;;11.76;69.10
18819;BME280;9537;45.594;9.294;2023-04-26T00:14:13;99274.19;;;11.78;69.11
18819;BME280;9537;45.594;9.294;2023-04-26T00:15:15;99268.88;;;11.78;69.01
18819;BME280;9537;45.594;9.294;2023-04-26T00:16:21;99274.56;;;11.75;69.13
18819;BME280;9537;45.594;9.294;2023-04-26T00:17:28;99272.72;;;11.75;69.00
18819;BME280;9537;45.594;9.294;2023-04-26T00:18:34;99281.69;;;11.74;68.96
18819;BME280;9537;45.594;9.294;2023-04-26T00:19:42;99273.53;;;11.76;69.03
18819;BME280;9537;45.594;9.294;2023-04-26T00:20:43;99274.19;;;11.78;69.35
18819;BME280;9537;45.594;9.294;2023-04-26T00:21:50;99269.09;;;11.76;69.48
18819;BME280;9537;45.594;9.294;2023-04-26T00:22:56;99267.19;;;11.70;69.73
18819;BME280;9537;45.594;9.294;2023-04-26T00:24:04;99271.03;;;11.67;70.03
18819;BME280;9537;45.594;9.294;2023-04-26T00:25:10;99273.06;;;11.65;70.38
18819;BME280;9537;45.594;9.294;2023-04-26T00:26:18;99274.41;;;11.61;70.76
18819;BME280;9537;45.594;9.294;2023-04-26T00:27:24;99274.19;;;11.56;70.36
18819;BME280;9537;45.594;9.294;2023-04-26T00:28:32;99263.97;;;11.53;70.30
18819;BME280;9537;45.594;9.294;2023-04-26T00:29:38;99277.81;;;11.55;69.75
18819;BME280;9537;45.594;9.294;2023-04-26T00:30:45;99282.94;;;11.57;69.30
18819;BME280;9537;45.594;9.294;2023-04-26T00:31:53;99279.22;;;11.51;69.41
18819;BME280;9537;45.594;9.294;2023-04-26T00:33:00;99289.16;;;11.49;69.89
18819;BME280;9537;45.594;9.294;2023-04-26T00:34:06;99281.78;;;11.44;69.38
18819;BME280;9537;45.594;9.294;2023-04-26T00:35:13;99276.06;;;11.41;69.06
18819;BME280;9537;45.594;9.294;2023-04-26T00:36:19;99285.44;;;11.43;69.02
18819;BME280;9537;45.594;9.294;2023-04-26T00:37:26;99285.28;;;11.45;69.19
18819;BME280;9537;45.594;9.294;2023-04-26T00:38:32;99287.53;;;11.48;69.25
18819;BME280;9537;45.594;9.294;2023-04-26T00:39:39;99293.63;;;11.48;69.60
18819;BME280;9537;45.594;9.294;2023-04-26T00:40:45;99291.81;;;11.49;69.76
18819;BME280;9537;45.594;9.294;2023-04-26T00:41:51;99296.91;;;11.50;69.93
18819;BME280;9537;45.594;9.294;2023-04-26T00:42:58;99297.91;;;11.49;70.38
18819;BME280;9537;45.594;9.294;2023-04-26T00:44:06;99299.09;;;11.47;70.83
18819;BME280;9537;45.594;9.294;2023-04-26T00:45:12;99297.16;;;11.34;70.06
18819;BME280;9537;45.594;9.294;2023-04-26T00:46:19;99299.06;;;11.25;69.75
18819;BME280;9537;45.594;9.294;2023-04-26T00:47:28;99294.97;;;11.23;69.04
18819;BME280;9537;45.594;9.294;2023-04-26T00:48:36;99290.44;;;11.17;69.21
18819;BME280;9537;45.594;9.294;2023-04-26T00:49:37;99300.56;;;11.13;69.38
18819;BME280;9537;45.594;9.294;2023-04-26T00:50:44;99307.03;;;11.11;69.62
18819;BME280;9537;45.594;9.294;2023-04-26T00:51:53;99302.56;;;11.11;69.53
18819;BME280;9537;45.594;9.294;2023-04-26T00:53:01;99295.91;;;11.15;69.46
18819;BME280;9537;45.594;9.294;2023-04-26T00:54:08;99302.84;;;11.16;69.39
18819;BME280;9537;45.594;9.294;2023-04-26T00:55:15;99296.53;;;11.17;69.60
18819;BME280;9537;45.594;9.294;2023-04-26T00:56:23;99310.13;;;11.14;70.05
18819;BME280;9537;45.594;9.294;2023-04-26T00:57:30;99304.31;;;11.19;69.98
18819;BME280;9537;45.594;9.294;2023-04-26T00:58:32;99308.13;;;11.16;69.96
18819;BME280;9537;45.594;9.294;2023-04-26T00:59:39;99307.28;;;11.16;69.83
18819;BME280;9537;45.594;9.294;2023-04-26T01:00:47;99312.94;;;11.13;69.74
18819;BME280;9537;45.594;9.294;2023-04-26T01:01:54;99310.31;;;11.13;69.71
18819;BME280;9537;45.594;9.294;2023-04-26T01:03:02;99315.78;;;11.11;69.69
18819;BME280;9537;45.594;9.294;2023-04-26T01:04:08;99314.97;;;11.11;69.90
18819;BME280;9537;45.594;9.294;2023-04-26T01:05:17;99315.59;;;11.13;69.72
18819;BME280;9537;45.594;9.294;2023-04-26T01:06:23;99308.66;;;11.12;69.65
18819;BME280;9537;45.594;9.294;2023-04-26T01:07:31;99315.78;;;11.11;69.69
18819;BME280;9537;45.594;9.294;2023-04-26T01:08:37;99314.13;;;11.10;69.56
18819;BME280;9537;45.594;9.294;2023-04-26T01:09:44;99313.31;;;11.10;69.44
18819;BME280;9537;45.594;9.294;2023-04-26T01:10:51;99320.25;;;11.11;69.32
18819;BME280;9537;45.594;9.294;2023-04-26T01:11:59;99318.53;;;11.03;69.78
18819;BME280;9537;45.594;9.294;2023-04-26T01:13:05;99317.88;;;11.01;69.88
18819;BME280;9537;45.594;9.294;2023-04-26T01:14:08;99319.91;;;10.99;70.04
18819;BME280;9537;45.594;9.294;2023-04-26T01:15:16;99316.63;;;10.97;70.14
18819;BME280;9537;45.594;9.294;2023-04-26T01:16:23;99312.16;;;10.97;70.47
18819;BME280;9537;45.594;9.294;2023-04-26T01:17:29;99319.72;;;11.00;70.27
18819;BME280;9537;45.594;9.294;2023-04-26T01:18:36;99318.91;;;11.00;70.48
18819;BME280;9537;45.594;9.294;2023-04-26T01:19:51;99326.44;;;11.03;70.26
18819;BME280;9537;45.594;9.294;2023-04-26T01:20:58;99320.53;;;11.01;70.09
18819;BME280;9537;45.594;9.294;2023-04-26T01:22:04;99319.72;;;11.00;69.80
18819;BME280;9537;45.594;9.294;2023-04-26T01:23:12;99326.63;;;11.01;69.85
18819;BME280;9537;45.594;9.294;2023-04-26T01:24:18;99329.47;;;11.00;70.06
18819;BME280;9537;45.594;9.294;2023-04-26T01:25:25;99329.47;;;11.00;70.02
18819;BME280;9537;45.594;9.294;2023-04-26T01:26:31;99324.34;;;10.98;69.83
18819;BME280;9537;45.594;9.294;2023-04-26T01:27:38;99331.81;;;10.95;70.30
18819;BME280;9537;45.594;9.294;2023-04-26T01:28:44;99322.28;;;10.94;70.27
18819;BME280;9537;45.594;9.294;2023-04-26T01:29:53;99325.19;;;10.99;69.92
18819;BME280;9537;45.594;9.294;2023-04-26T01:31:00;99328.81;;;10.98;69.64
18819;BME280;9537;45.594;9.294;2023-04-26T01:32:07;99321.25;;;10.95;69.55
18819;BME280;9537;45.594;9.294;2023-04-26T01:33:13;99321.63;;;10.92;69.19
18819;BME280;9537;45.594;9.294;2023-04-26T01:34:21;99328.47;;;10.86;69.03
18819;BME280;9537;45.594;9.294;2023-04-26T01:35:26;99327.38;;;10.80;69.47
18819;BME280;9537;45.594;9.294;2023-04-26T01:36:33;99330.56;;;10.76;69.43
18819;BME280;9537;45.594;9.294;2023-04-26T01:37:39;99331.38;;;10.76;69.44
18819;BME280;9537;45.594;9.294;2023-04-26T01:38:48;99331.91;;;10.72;69.96
18819;BME280;9537;45.594;9.294;2023-04-26T01:39:54;99331.91;;;10.72;70.40
18819;BME280;9537;45.594;9.294;2023-04-26T01:41:01;99339.47;;;10.75;70.67
18819;BME280;9537;45.594;9.294;2023-04-26T01:42:02;99333.84;;;10.78;70.90
18819;BME280;9537;45.594;9.294;2023-04-26T01:43:09;99340.03;;;10.85;71.00
18819;BME280;9537;45.594;9.294;2023-04-26T01:44:15;99331.56;;;10.90;71.21
18819;BME280;9537;45.594;9.294;2023-04-26T01:45:22;99336.47;;;10.93;71.86
18819;BME280;9537;45.594;9.294;2023-04-26T01:46:28;99330.81;;;10.96;72.17
18819;BME280;9537;45.594;9.294;2023-04-26T01:47:36;99335.41;;;11.02;72.17
18819;BME280;9537;45.594;9.294;2023-04-26T01:48:41;99329.91;;;11.03;72.90
18819;BME280;9537;45.594;9.294;2023-04-26T01:49:49;99323.28;;;11.08;73.34
18819;BME280;9537;45.594;9.294;2023-04-26T01:50:55;99317.63;;;11.11;73.53
18819;BME280;9537;45.594;9.294;2023-04-26T01:51:57;99320.88;;;11.13;73.80
18819;BME280;9537;45.594;9.294;2023-04-26T01:53:03;99326.16;;;11.13;72.87
18819;BME280;9537;45.594;9.294;2023-04-26T01:54:12;99327.97;;;11.12;72.43
18819;BME280;9537;45.594;9.294;2023-04-26T01:55:17;99318.44;;;11.11;71.33
18819;BME280;9537;45.594;9.294;2023-04-26T01:56:24;99329.09;;;11.03;69.86
18819;BME280;9537;45.594;9.294;2023-04-26T01:57:30;99328.53;;;10.93;69.09
18819;BME280;9537;45.594;9.294;2023-04-26T01:58:33;99333.38;;;10.89;69.09
18819;BME280;9537;45.594;9.294;2023-04-26T01:59:39;99335.75;;;10.84;69.20
18819;BME280;9537;45.594;9.294;2023-04-26T02:00:46;99337.94;;;10.80;69.47
18819;BME280;9537;45.594;9.294;2023-04-26T02:01:52;99339.31;;;10.76;69.90
18819;BME280;9537;45.594;9.294;2023-04-26T02:02:59;99335.66;;;10.77;70.38
18819;BME280;9537;45.594;9.294;2023-04-26T02:04:05;99336.31;;;10.79;70.44
18819;BME280;9537;45.594;9.294;2023-04-26T02:05:12;99338.75;;;10.81;70.70
18819;BME280;9537;45.594;9.294;2023-04-26T02:06:19;99337.75;;;10.82;70.90
18819;BME280;9537;45.594;9.294;2023-04-26T02:07:25;99335.94;;;10.82;71.12
18819;BME280;9537;45.594;9.294;2023-04-26T02:08:31;99338.38;;;10.84;71.33
18819;BME280;9537;45.594;9.294;2023-04-26T02:09:40;99343.31;;;10.87;71.75
18819;BME280;9537;45.594;9.294;2023-04-26T02:10:46;99341.31;;;10.89;71.75
18819;BME280;9537;45.594;9.294;2023-04-26T02:11:53;99339.47;;;10.90;70.72
18819;BME280;9537;45.594;9.294;2023-04-26T02:12:59;99342.13;;;10.90;69.62
18819;BME280;9537;45.594;9.294;2023-04-26T02:14:06;99338.22;;;10.86;70.27
18819;BME280;9537;45.594;9.294;2023-04-26T02:15:12;99343.66;;;10.84;70.17
18819;BME280;9537;45.594;9.294;2023-04-26T02:16:19;99339.22;;;10.85;70.08
18819;BME280;9537;45.594;9.294;2023-04-26T02:17:26;99340.84;;;10.86;70.12
18819;BME280;9537;45.594;9.294;2023-04-26T02:18:28;99333.94;;;10.85;70.28
18819;BME280;9537;45.594;9.294;2023-04-26T02:19:34;99338.00;;;10.87;70.10
18819;BME280;9537;45.594;9.294;2023-04-26T02:20:42;99337.56;;;10.83;70.15
18819;BME280;9537;45.594;9.294;2023-04-26T02:21:50;99341.59;;;10.79;69.73
18819;BME280;9537;45.594;9.294;2023-04-26T02:22:58;99341.97;;;10.76;69.44
18819;BME280;9537;45.594;9.294;2023-04-26T02:24:04;99340.94;;;10.77;68.97
18819;BME280;9537;45.594;9.294;2023-04-26T02:25:13;99341.84;;;10.70;68.99
18819;BME280;9537;45.594;9.294;2023-04-26T02:26:18;99338.75;;;10.66;69.26
18819;BME280;9537;45.594;9.294;2023-04-26T02:27:25;99340.13;;;10.62;69.29
18819;BME280;9537;45.594;9.294;2023-04-26T02:28:32;99348.13;;;10.54;69.79
18819;BME280;9537;45.594;9.294;2023-04-26T02:29:39;99336.09;;;10.51;69.70
18819;BME280;9537;45.594;9.294;2023-04-26T02:30:45;99335.28;;;10.51;69.18
18819;BME280;9537;45.594;9.294;2023-04-26T02:31:52;99341.91;;;10.47;69.48
18819;BME280;9537;45.594;9.294;2023-04-26T02:32:57;99343.63;;;10.40;70.06
18819;BME280;9537;45.594;9.294;2023-04-26T02:34:05;99347.91;;;10.41;71.14
18819;BME280;9537;45.594;9.294;2023-04-26T02:35:10;99344.28;;;10.42;70.40
18819;BME280;9537;45.594;9.294;2023-04-26T02:36:17;99343.34;;;10.34;70.60
18819;BME280;9537;45.594;9.294;2023-04-26T02:37:23;99349.06;;;10.38;70.41
18819;BME280;9537;45.594;9.294;2023-04-26T02:38:33;99353.53;;;10.37;70.35
18819;BME280;9537;45.594;9.294;2023-04-26T02:39:40;99351.34;;;10.41;70.22
18819;BME280;9537;45.594;9.294;2023-04-26T02:40:48;99346.28;;;10.40;70.13
18819;BME280;9537;45.594;9.294;2023-04-26T02:41:54;99346.44;;;10.38;70.31
18819;BME280;9537;45.594;9.294;2023-04-26T02:43:02;99349.56;;;10.42;70.42
18819;BME280;9537;45.594;9.294;2023-04-26T02:44:08;99345.91;;;10.43;70.22
18819;BME280;9537;45.594;9.294;2023-04-26T02:45:15;99345.81;;;10.36;70.66
18819;BME280;9537;45.594;9.294;2023-04-26T02:46:20;99342.63;;;10.41;70.55
18819;BME280;9537;45.594;9.294;2023-04-26T02:47:27;99343.34;;;10.34;70.61
18819;BME280;9537;45.594;9.294;2023-04-26T02:48:33;99342.16;;;10.37;70.42
18819;BME280;9537;45.594;9.294;2023-04-26T02:49:40;99344.00;;;10.36;70.42
18819;BME280;9537;45.594;9.294;2023-04-26T02:50:46;99340.53;;;10.36;70.52
18819;BME280;9537;45.594;9.294;2023-04-26T02:51:53;99342.81;;;10.39;70.38
18819;BME280;9537;45.594;9.294;2023-04-26T02:52:59;99343.81;;;10.38;70.46
18819;BME280;9537;45.594;9.294;2023-04-26T02:54:08;99339.06;;;10.33;70.65
18819;BME280;9537;45.594;9.294;2023-04-26T02:55:14;99341.44;;;10.28;70.74
18819;BME280;9537;45.594;9.294;2023-04-26T02:56:18;99343.56;;;10.25;70.08
18819;BME280;9537;45.594;9.294;2023-04-26T02:57:24;99338.47;;;10.23;69.49
18819;BME280;9537;45.594;9.294;2023-04-26T02:58:31;99341.81;;;10.17;69.97
18819;BME280;9537;45.594;9.294;2023-04-26T02:59:37;99341.72;;;10.10;70.00
18819;BME280;9537;45.594;9.294;2023-04-26T03:00:45;99347.22;;;10.01;70.41
18819;BME280;9537;45.594;9.294;2023-04-26T03:01:51;99351.69;;;10.00;70.83
18819;BME280;9537;45.594;9.294;2023-04-26T03:02:58;99347.16;;;9.86;71.61
18819;BME280;9537;45.594;9.294;2023-04-26T03:04:04;99342.53;;;9.88;71.79
18819;BME280;9537;45.594;9.294;2023-04-26T03:05:11;99345.34;;;9.86;71.90
18819;BME280;9537;45.594;9.294;2023-04-26T03:06:18;99347.34;;;9.84;72.11
18819;BME280;9537;45.594;9.294;2023-04-26T03:07:25;99344.38;;;9.87;72.12
18819;BME280;9537;45.594;9.294;2023-04-26T03:08:31;99346.50;;;9.84;71.55
18819;BME280;9537;45.594;9.294;2023-04-26T03:09:39;99342.53;;;9.88;71.34
18819;BME280;9537;45.594;9.294;2023-04-26T03:10:45;99347.81;;;9.88;71.04
18819;BME280;9537;45.594;9.294;2023-04-26T03:11:53;99347.50;;;9.83;70.91
18819;BME280;9537;45.594;9.294;2023-04-26T03:12:59;99348.69;;;9.80;71.01
18819;BME280;9537;45.594;9.294;2023-04-26T03:14:08;99349.03;;;9.77;71.05
18819;BME280;9537;45.594;9.294;2023-04-26T03:15:14;99346.03;;;9.80;70.68
18819;BME280;9537;45.594;9.294;2023-04-26T03:16:22;99344.78;;;9.76;70.55
18819;BME280;9537;45.594;9.294;2023-04-26T03:17:28;99346.75;;;9.74;71.00
18819;BME280;9537;45.594;9.294;2023-04-26T03:18:35;99346.63;;;9.67;71.01
18819;BME280;9537;45.594;9.294;2023-04-26T03:19:41;99345.16;;;9.65;70.79
18819;BME280;9537;45.594;9.294;2023-04-26T03:20:49;99344.50;;;9.63;71.08
18819;BME280;9537;45.594;9.294;2023-04-26T03:21:55;99351.75;;;9.61;71.28
18819;BME280;9537;45.594;9.294;2023-04-26T03:23:02;99348.31;;;9.60;71.81
18819;BME280;9537;45.594;9.294;2023-04-26T03:24:08;99350.59;;;9.63;71.93
18819;BME280;9537;45.594;9.294;2023-04-26T03:25:16;99344.50;;;9.63;71.66
18819;BME280;9537;45.594;9.294;2023-04-26T03:26:22;99342.53;;;9.65;71.95
18819;BME280;9537;45.594;9.294;2023-04-26T03:27:30;99343.84;;;9.61;71.81
18819;BME280;9537;45.594;9.294;2023-04-26T03:28:37;99345.69;;;9.60;71.78
18819;BME280;9537;45.594;9.294;2023-04-26T03:29:43;99346.13;;;9.64;72.53
18819;BME280;9537;45.594;9.294;2023-04-26T03:30:50;99336.09;;;9.67;72.61
18819;BME280;9537;45.594;9.294;2023-04-26T03:31:56;99341.16;;;9.69;72.16
18819;BME280;9537;45.594;9.294;2023-04-26T03:33:03;99342.84;;;9.70;72.07
18819;BME280;9537;45.594;9.294;2023-04-26T03:34:10;99340.34;;;9.68;72.23
18819;BME280;9537;45.594;9.294;2023-04-26T03:35:17;99342.66;;;9.72;71.84
18819;BME280;9537;45.594;9.294;2023-04-26T03:36:23;99340.19;;;9.70;71.94
18819;BME280;9537;45.594;9.294;2023-04-26T03:37:30;99336.44;;;9.64;71.42
18819;BME280;9537;45.594;9.294;2023-04-26T03:38:36;99339.69;;;9.66;71.45
18819;BME280;9537;45.594;9.294;2023-04-26T03:39:43;99338.22;;;9.64;70.58
18819;BME280;9537;45.594;9.294;2023-04-26T03:40:49;99346.63;;;9.67;70.73
18819;BME280;9537;45.594;9.294;2023-04-26T03:41:51;99341.00;;;9.70;70.50
18819;BME280;9537;45.594;9.294;2023-04-26T03:42:58;99338.53;;;9.69;70.53
18819;BME280;9537;45.594;9.294;2023-04-26T03:44:06;99347.09;;;9.71;70.83
18819;BME280;9537;45.594;9.294;2023-04-26T03:45:12;99353.03;;;9.73;70.91
18819;BME280;9537;45.594;9.294;2023-04-26T03:46:19;99341.13;;;9.77;70.97
18819;BME280;9537;45.594;9.294;2023-04-26T03:47:24;99349.50;;;9.81;71.31
18819;BME280;9537;45.594;9.294;2023-04-26T03:48:31;99344.06;;;9.82;71.39
18819;BME280;9537;45.594;9.294;2023-04-26T03:49:37;99347.97;;;9.86;71.74
18819;BME280;9537;45.594;9.294;2023-04-26T03:50:44;99345.69;;;9.83;71.98
18819;BME280;9537;45.594;9.294;2023-04-26T03:51:50;99341.88;;;9.86;71.34
18819;BME280;9537;45.594;9.294;2023-04-26T03:52:57;99348.78;;;9.87;71.41
18819;BME280;9537;45.594;9.294;2023-04-26T03:54:03;99341.72;;;9.87;71.31
18819;BME280;9537;45.594;9.294;2023-04-26T03:55:10;99341.94;;;9.78;70.88
18819;BME280;9537;45.594;9.294;2023-04-26T03:56:17;99337.47;;;9.78;70.80
18819;BME280;9537;45.594;9.294;2023-04-26T03:57:24;99342.41;;;9.81;70.36
18819;BME280;9537;45.594;9.294;2023-04-26T03:58:32;99349.50;;;9.81;70.07
18819;BME280;9537;45.594;9.294;2023-04-26T03:59:39;99347.88;;;9.80;70.25
18819;BME280;9537;45.594;9.294;2023-04-26T04:00:45;99348.69;;;9.80;69.94
18819;BME280;9537;45.594;9.294;2023-04-26T04:01:52;99352.84;;;9.75;69.92
18819;BME280;9537;45.594;9.294;2023-04-26T04:02:58;99355.00;;;9.71;70.35
18819;BME280;9537;45.594;9.294;2023-04-26T04:04:05;99354.56;;;9.67;70.39
18819;BME280;9537;45.594;9.294;2023-04-26T04:05:11;99354.72;;;9.66;70.53
18819;BME280;9537;45.594;9.294;2023-04-26T04:06:18;99352.59;;;9.61;71.12
18819;BME280;9537;45.594;9.294;2023-04-26T04:07:24;99352.59;;;9.61;70.36
18819;BME280;9537;45.594;9.294;2023-04-26T04:08:31;99355.41;;;9.60;70.83
18819;BME280;9537;45.594;9.294;2023-04-26T04:09:37;99363.66;;;9.57;70.63
18819;BME280;9537;45.594;9.294;2023-04-26T04:10:44;99356.81;;;9.47;70.57
18819;BME280;9537;45.594;9.294;2023-04-26T04:11:50;99366.19;;;9.50;70.43
18819;BME280;9537;45.594;9.294;2023-04-26T04:12:52;99355.50;;;9.43;70.01
18819;BME280;9537;45.594;9.294;2023-04-26T04:14:00;99358.44;;;9.48;70.29
18819;BME280;9537;45.594;9.294;2023-04-26T04:15:08;99355.34;;;9.45;69.61
18819;BME280;9537;45.594;9.294;2023-04-26T04:16:15;99365.88;;;9.45;70.05
18819;BME280;9537;45.594;9.294;2023-04-26T04:17:21;99367.69;;;9.44;70.12
18819;BME280;9537;45.594;9.294;2023-04-26T04:18:28;99355.50;;;9.43;70.32
18819;BME280;9537;45.594;9.294;2023-04-26T04:19:36;99362.44;;;9.44;70.73
18819;BME280;9537;45.594;9.294;2023-04-26T04:20:42;99361.22;;;9.47;71.01
18819;BME280;9537;45.594;9.294;2023-04-26T04:21:49;99367.34;;;9.47;71.32
18819;BME280;9537;45.594;9.294;2023-04-26T04:22:55;99366.50;;;9.47;71.91
18819;BME280;9537;45.594;9.294;2023-04-26T04:24:02;99368.16;;;9.48;71.41
18819;BME280;9537;45.594;9.294;2023-04-26T04:25:09;99363.25;;;9.45;70.96
18819;BME280;9537;45.594;9.294;2023-04-26T04:26:16;99364.75;;;9.39;70.93
18819;BME280;9537;45.594;9.294;2023-04-26T04:27:23;99358.00;;;9.37;70.22
18819;BME280;9537;45.594;9.294;2023-04-26T04:28:31;99357.34;;;9.35;70.78
18819;BME280;9537;45.594;9.294;2023-04-26T04:29:39;99353.44;;;9.31;70.86
18819;BME280;9537;45.594;9.294;2023-04-26T04:30:46;99356.06;;;9.31;71.64
18819;BME280;9537;45.594;9.294;2023-04-26T04:31:52;99361.81;;;9.34;71.68
18819;BME280;9537;45.594;9.294;2023-04-26T04:32:59;99368.91;;;9.25;71.53
18819;BME280;9537;45.594;9.294;2023-04-26T04:34:05;99365.47;;;9.25;72.34
18819;BME280;9537;45.594;9.294;2023-04-26T04:35:13;99373.88;;;9.20;72.45
18819;BME280;9537;45.594;9.294;2023-04-26T04:36:19;99366.28;;;9.25;71.64
18819;BME280;9537;45.594;9.294;2023-04-26T04:37:27;99369.75;;;9.26;72.61
18819;BME280;9537;45.594;9.294;2023-04-26T04:38:33;99372.22;;;9.28;72.49
18819;BME280;9537;45.594;9.294;2023-04-26T04:39:40;99380.59;;;9.31;72.76
18819;BME280;9537;45.594;9.294;2023-04-26T04:40:47;99372.50;;;9.33;72.66
18819;BME280;9537;45.594;9.294;2023-04-26T04:41:54;99373.16;;;9.35;72.75
18819;BME280;9537;45.594;9.294;2023-04-26T04:43:00;99373.97;;;9.35;72.27
18819;BME280;9537;45.594;9.294;2023-04-26T04:44:07;99376.09;;;9.40;71.59
18819;BME280;9537;45.594;9.294;2023-04-26T04:45:15;99377.94;;;9.39;71.44
18819;BME280;9537;45.594;9.294;2023-04-26T04:46:22;99380.22;;;9.42;71.76
18819;BME280;9537;45.594;9.294;2023-04-26T04:47:29;99380.25;;;9.34;71.42
18819;BME280;9537;45.594;9.294;2023-04-26T04:48:36;99382.56;;;9.29;71.05
18819;BME280;9537;45.594;9.294;2023-04-26T04:49:43;99386.59;;;9.17;71.31
18819;BME280;9537;45.594;9.294;2023-04-26T04:50:50;99389.38;;;9.15;71.26
18819;BME280;9537;45.594;9.294;2023-04-26T04:51:57;99389.88;;;9.19;71.20
18819;BME280;9537;45.594;9.294;2023-04-26T04:53:04;99384.59;;;9.19;71.00
18819;BME280;9537;45.594;9.294;2023-04-26T04:54:10;99389.88;;;9.19;70.68
18819;BME280;9537;45.594;9.294;2023-04-26T04:55:18;99386.72;;;9.15;70.71
18819;BME280;9537;45.594;9.294;2023-04-26T04:56:24;99388.56;;;9.15;71.56
18819;BME280;9537;45.594;9.294;2023-04-26T04:57:30;99394.81;;;9.14;72.18
18819;BME280;9537;45.594;9.294;2023-04-26T04:58:32;99388.56;;;9.15;72.38
18819;BME280;9537;45.594;9.294;2023-04-26T04:59:34;99387.25;;;9.19;72.53
18819;BME280;9537;45.594;9.294;2023-04-26T05:00:41;99393.13;;;9.21;73.05
18819;BME280;9537;45.594;9.294;2023-04-26T05:01:50;99395.31;;;9.17;73.20
18819;BME280;9537;45.594;9.294;2023-04-26T05:02:56;99394.13;;;9.20;72.98
18819;BME280;9537;45.594;9.294;2023-04-26T05:04:03;99387.59;;;9.16;72.59
18819;BME280;9537;45.594;9.294;2023-04-26T05:05:10;99402.53;;;9.15;72.39
18819;BME280;9537;45.594;9.294;2023-04-26T05:06:17;99399.78;;;9.09;72.02
18819;BME280;9537;45.594;9.294;2023-04-26T05:07:23;99403.22;;;9.09;71.70
18819;BME280;9537;45.594;9.294;2023-04-26T05:08:25;99404.38;;;9.07;72.12
18819;BME280;9537;45.594;9.294;2023-04-26T05:09:31;99402.75;;;9.06;72.51
18819;BME280;9537;45.594;9.294;2023-04-26T05:10:38;99404.72;;;9.03;72.70
18819;BME280;9537;45.594;9.294;2023-04-26T05:11:39;99404.56;;;9.05;73.13
18819;BME280;9537;45.594;9.294;2023-04-26T05:12:46;99408.19;;;9.04;72.67
18819;BME280;9537;45.594;9.294;2023-04-26T05:13:53;99401.59;;;9.00;72.70
18819;BME280;9537;45.594;9.294;2023-04-26T05:14:59;99408.50;;;9.01;73.18
18819;BME280;9537;45.594;9.294;2023-04-26T05:16:07;99414.91;;;9.07;73.28
18819;BME280;9537;45.594;9.294;2023-04-26T05:17:13;99415.91;;;9.06;73.66
18819;BME280;9537;45.594;9.294;2023-04-26T05:18:21;99417.22;;;9.10;74.12
18819;BME280;9537;45.594;9.294;2023-04-26T05:19:27;99420.50;;;9.12;74.79
18819;BME280;9537;45.594;9.294;2023-04-26T05:20:34;99420.16;;;9.15;74.36
18819;BME280;9537;45.594;9.294;2023-04-26T05:21:40;99420.16;;;9.15;74.73
18819;BME280;9537;45.594;9.294;2023-04-26T05:22:47;99416.56;;;9.16;74.86
18819;BME280;9537;45.594;9.294;2023-04-26T05:23:53;99423.47;;;9.17;75.43
18819;BME280;9537;45.594;9.294;2023-04-26T05:25:00;99426.09;;;9.17;75.29
18819;BME280;9537;45.594;9.294;2023-04-26T05:26:06;99425.09;;;9.18;75.78
18819;BME280;9537;45.594;9.294;2023-04-26T05:27:09;99425.59;;;9.21;75.98
18819;BME280;9537;45.594;9.294;2023-04-26T05:28:14;99426.09;;;9.25;76.15
18819;BME280;9537;45.594;9.294;2023-04-26T05:29:22;99423.78;;;9.30;75.81
18819;BME280;9537;45.594;9.294;2023-04-26T05:30:28;99423.44;;;9.33;75.37
18819;BME280;9537;45.594;9.294;2023-04-26T05:31:31;99429.19;;;9.29;75.43
18819;BME280;9537;45.594;9.294;2023-04-26T05:32:37;99432.84;;;9.28;75.10
18819;BME280;9537;45.594;9.294;2023-04-26T05:33:46;99434.47;;;9.29;75.87
18819;BME280;9537;45.594;9.294;2023-04-26T05:34:52;99437.28;;;9.27;75.97
18819;BME280;9537;45.594;9.294;2023-04-26T05:35:59;99433.97;;;9.33;76.31
18819;BME280;9537;45.594;9.294;2023-04-26T05:37:06;99435.75;;;9.33;76.95
18819;BME280;9537;45.594;9.294;2023-04-26T05:38:08;99439.25;;;9.33;76.51
18819;BME280;9537;45.594;9.294;2023-04-26T05:39:14;99445.81;;;9.37;76.88
18819;BME280;9537;45.594;9.294;2023-04-26T05:40:21;99446.63;;;9.38;77.59
18819;BME280;9537;45.594;9.294;2023-04-26T05:41:27;99443.16;;;9.37;78.70
18819;BME280;9537;45.594;9.294;2023-04-26T05:42:34;99445.81;;;9.37;77.95
18819;BME280;9537;45.594;9.294;2023-04-26T05:43:40;99447.28;;;9.40;78.39
18819;BME280;9537;45.594;9.294;2023-04-26T05:44:47;99449.75;;;9.41;78.55
18819;BME280;9537;45.594;9.294;2023-04-26T05:45:54;99450.38;;;9.43;78.52
18819;BME280;9537;45.594;9.294;2023-04-26T05:46:58;99451.72;;;9.47;78.88
18819;BME280;9537;45.594;9.294;2023-04-26T05:48:05;99445.09;;;9.52;78.80
18819;BME280;9537;45.594;9.294;2023-04-26T05:49:11;99451.03;;;9.54;78.80
18819;BME280;9537;45.594;9.294;2023-04-26T05:50:14;99452.31;;;9.58;78.58
18819;BME280;9537;45.594;9.294;2023-04-26T05:51:20;99447.69;;;9.60;79.31
18819;BME280;9537;45.594;9.294;2023-04-26T05:52:27;99446.19;;;9.65;79.14
18819;BME280;9537;45.594;9.294;2023-04-26T05:53:28;99453.59;;;9.70;78.87
18819;BME280;9537;45.594;9.294;2023-04-26T05:54:35;99453.88;;;9.75;78.64
18819;BME280;9537;45.594;9.294;2023-04-26T05:55:41;99461.44;;;9.78;78.88
18819;BME280;9537;45.594;9.294;2023-04-26T05:56:48;99456.81;;;9.80;78.89
18819;BME280;9537;45.594;9.294;2023-04-26T05:57:55;99457.47;;;9.82;79.08
18819;BME280;9537;45.594;9.294;2023-04-26T05:59:01;99452.88;;;9.84;78.71
18819;BME280;9537;45.594;9.294;2023-04-26T06:00:04;99452.69;;;9.86;78.52